RYR7LY LIMC-LICJ
Flight info
| Callsign | RYR7LY |
|---|---|
| Flight time | 1h 23m |
| Altitude | 37000 |
| Route | ROBAS DCT EKDIR DCT LURON |
| Aircraft | B738/M-SABDFGRVYL/LB2 |
Departure
| Time | 2026-05-04 16:12 |
|---|---|
| Airport | Milan Malpensa International Airport (LIMC) |
Arrival
| Time | 2026-05-04 17:35 |
|---|---|
| Airport | Falcone–Borsellino Airport (LICJ) |
| Time | Latitude | Longitude | Altitude | Speed | Heading |
|---|---|---|---|---|---|
| 2026-05-04 15:49 | 45.62508 | 8.71750 | 741 ft | 0 kts | 259° |
| 2026-05-04 16:02 | 45.62513 | 8.71785 | 740 ft | 2 kts | 258° |
| 2026-05-04 16:03 | 45.62515 | 8.71806 | 739 ft | 2 kts | 260° |
| 2026-05-04 16:03 | 45.62518 | 8.71827 | 739 ft | 2 kts | 259° |
| 2026-05-04 16:03 | 45.62521 | 8.71848 | 738 ft | 1 kts | 259° |
| 2026-05-04 16:03 | 45.62522 | 8.71859 | 738 ft | 1 kts | 243° |
| 2026-05-04 16:04 | 45.62529 | 8.71867 | 738 ft | 1 kts | 185° |
| 2026-05-04 16:04 | 45.62539 | 8.71865 | 738 ft | 0 kts | 169° |
| 2026-05-04 16:06 | 45.62343 | 8.71959 | 736 ft | 14 kts | 104° |
| 2026-05-04 16:07 | 45.62362 | 8.72084 | 734 ft | 0 kts | 73° |
| 2026-05-04 16:07 | 45.62277 | 8.72238 | 730 ft | 15 kts | 165° |
| 2026-05-04 16:08 | 45.62223 | 8.72360 | 726 ft | 16 kts | 86° |
| 2026-05-04 16:08 | 45.62298 | 8.72979 | 716 ft | 17 kts | 107° |
| 2026-05-04 16:09 | 45.62071 | 8.73084 | 709 ft | 18 kts | 169° |
| 2026-05-04 16:09 | 45.61808 | 8.73159 | 703 ft | 19 kts | 171° |
| 2026-05-04 16:10 | 45.61624 | 8.73463 | 696 ft | 21 kts | 124° |
| 2026-05-04 16:11 | 45.62105 | 8.73598 | 707 ft | 95 kts | 348° |
| 2026-05-04 16:11 | 45.62967 | 8.73362 | 723 ft | 155 kts | 349° |
| 2026-05-04 16:12 | 45.66555 | 8.73199 | 2462 ft | 188 kts | 35° |
| 2026-05-04 16:12 | 45.67906 | 8.78805 | 4234 ft | 216 kts | 60° |
| 2026-05-04 16:13 | 45.70421 | 8.80885 | 5711 ft | 220 kts | 18° |
| 2026-05-04 16:13 | 45.72498 | 8.83783 | 7073 ft | 221 kts | 79° |
| 2026-05-04 16:14 | 45.72115 | 8.88108 | 8235 ft | 233 kts | 117° |
| 2026-05-04 16:14 | 45.70026 | 8.91686 | 9567 ft | 241 kts | 136° |
| 2026-05-04 16:15 | 45.67188 | 8.97734 | 11660 ft | 255 kts | 126° |
| 2026-05-04 16:16 | 45.64935 | 9.01708 | 13006 ft | 263 kts | 135° |
| 2026-05-04 16:16 | 45.60954 | 9.07835 | 14393 ft | 306 kts | 135° |
| 2026-05-04 16:17 | 45.57977 | 9.12548 | 15262 ft | 336 kts | 135° |
| 2026-05-04 16:18 | 45.52961 | 9.20419 | 16645 ft | 376 kts | 135° |
| 2026-05-04 16:18 | 45.51180 | 9.23209 | 17363 ft | 381 kts | 134° |
| 2026-05-04 16:19 | 45.45766 | 9.31673 | 19436 ft | 393 kts | 134° |
| 2026-05-04 16:19 | 45.42065 | 9.37441 | 20788 ft | 400 kts | 135° |
| 2026-05-04 16:20 | 45.36372 | 9.46289 | 22690 ft | 411 kts | 134° |
| 2026-05-04 16:20 | 45.32478 | 9.52326 | 23864 ft | 418 kts | 134° |
| 2026-05-04 16:21 | 45.26523 | 9.61534 | 25477 ft | 429 kts | 134° |
| 2026-05-04 16:22 | 45.22471 | 9.67780 | 26453 ft | 436 kts | 135° |
| 2026-05-04 16:22 | 45.15739 | 9.76567 | 27820 ft | 443 kts | 146° |
| 2026-05-04 16:23 | 45.08178 | 9.84160 | 29078 ft | 452 kts | 148° |
| 2026-05-04 16:24 | 44.97948 | 9.94289 | 31263 ft | 450 kts | 148° |
| 2026-05-04 16:25 | 44.92867 | 9.99367 | 32300 ft | 448 kts | 148° |
| 2026-05-04 16:26 | 44.82674 | 10.09567 | 34118 ft | 448 kts | 148° |
| 2026-05-04 16:26 | 44.75001 | 10.17227 | 35216 ft | 449 kts | 148° |
| 2026-05-04 16:27 | 44.69896 | 10.22313 | 35893 ft | 448 kts | 149° |
| 2026-05-04 16:28 | 44.62295 | 10.29863 | 36963 ft | 447 kts | 149° |
| 2026-05-04 16:28 | 44.54642 | 10.37433 | 37086 ft | 449 kts | 149° |
| 2026-05-04 16:29 | 44.44267 | 10.47649 | 37091 ft | 467 kts | 149° |
| 2026-05-04 16:31 | 44.30767 | 10.60895 | 37094 ft | 475 kts | 149° |
| 2026-05-04 16:32 | 44.13770 | 10.74652 | 37096 ft | 465 kts | 165° |
| 2026-05-04 16:33 | 44.01547 | 10.80401 | 37099 ft | 464 kts | 166° |
| 2026-05-04 16:34 | 43.92353 | 10.84773 | 37186 ft | 469 kts | 166° |
| 2026-05-04 16:35 | 43.74049 | 10.93623 | 37079 ft | 466 kts | 166° |
| 2026-05-04 16:36 | 43.64913 | 10.98038 | 37084 ft | 465 kts | 166° |
| 2026-05-04 16:37 | 43.55694 | 11.02477 | 37089 ft | 468 kts | 166° |
| 2026-05-04 16:38 | 43.43428 | 11.08363 | 37093 ft | 469 kts | 166° |
| 2026-05-04 16:39 | 43.27999 | 11.15729 | 37095 ft | 470 kts | 166° |
| 2026-05-04 16:40 | 43.15665 | 11.21591 | 37096 ft | 471 kts | 166° |
| 2026-05-04 16:41 | 43.00221 | 11.28892 | 37098 ft | 473 kts | 167° |
| 2026-05-04 16:43 | 42.84697 | 11.36196 | 37103 ft | 472 kts | 167° |
| 2026-05-04 16:43 | 42.75402 | 11.40548 | 37107 ft | 473 kts | 167° |
| 2026-05-04 16:45 | 42.56685 | 11.49272 | 37106 ft | 475 kts | 167° |
| 2026-05-04 16:46 | 42.41120 | 11.56486 | 37107 ft | 474 kts | 167° |
| 2026-05-04 16:47 | 42.28594 | 11.62259 | 37108 ft | 475 kts | 167° |
| 2026-05-04 16:48 | 42.16082 | 11.68005 | 37115 ft | 476 kts | 167° |
| 2026-05-04 16:49 | 42.03496 | 11.73764 | 37118 ft | 477 kts | 168° |
| 2026-05-04 16:50 | 41.90915 | 11.79485 | 37119 ft | 482 kts | 167° |
| 2026-05-04 16:51 | 41.81426 | 11.83793 | 37118 ft | 480 kts | 167° |
| 2026-05-04 16:52 | 41.68737 | 11.89533 | 37125 ft | 481 kts | 167° |
| 2026-05-04 16:53 | 41.59223 | 11.93820 | 37121 ft | 482 kts | 167° |
| 2026-05-04 16:54 | 41.46486 | 11.99536 | 37111 ft | 482 kts | 167° |
| 2026-05-04 16:55 | 41.27351 | 12.08080 | 37109 ft | 484 kts | 167° |
| 2026-05-04 16:56 | 41.11372 | 12.15173 | 37114 ft | 485 kts | 166° |
| 2026-05-04 16:57 | 41.01801 | 12.19406 | 37118 ft | 484 kts | 166° |
| 2026-05-04 16:58 | 40.88987 | 12.25047 | 37114 ft | 486 kts | 166° |
| 2026-05-04 17:00 | 40.69960 | 12.33404 | 37116 ft | 459 kts | 166° |
| 2026-05-04 17:01 | 40.54709 | 12.40032 | 37116 ft | 462 kts | 166° |
| 2026-05-04 17:02 | 40.42422 | 12.45361 | 37119 ft | 465 kts | 166° |
| 2026-05-04 17:02 | 40.36305 | 12.48010 | 36974 ft | 460 kts | 166° |
| 2026-05-04 17:03 | 40.33291 | 12.49318 | 36630 ft | 453 kts | 166° |
| 2026-05-04 17:03 | 40.30322 | 12.50605 | 36223 ft | 448 kts | 167° |
| 2026-05-04 17:03 | 40.24450 | 12.53140 | 35298 ft | 445 kts | 167° |
| 2026-05-04 17:04 | 40.18579 | 12.55660 | 34258 ft | 444 kts | 167° |
| 2026-05-04 17:04 | 40.12745 | 12.58165 | 33172 ft | 440 kts | 167° |
| 2026-05-04 17:05 | 40.06967 | 12.60645 | 32151 ft | 434 kts | 167° |
| 2026-05-04 17:05 | 40.01305 | 12.63069 | 31149 ft | 429 kts | 167° |
| 2026-05-04 17:06 | 39.95652 | 12.65486 | 30150 ft | 424 kts | 167° |
| 2026-05-04 17:06 | 39.92878 | 12.66670 | 29656 ft | 422 kts | 167° |
| 2026-05-04 17:07 | 39.87322 | 12.69036 | 28656 ft | 417 kts | 167° |
| 2026-05-04 17:07 | 39.85487 | 12.69817 | 28327 ft | 415 kts | 167° |
| 2026-05-04 17:07 | 39.81879 | 12.71350 | 27676 ft | 411 kts | 167° |
| 2026-05-04 17:07 | 39.79156 | 12.72508 | 27184 ft | 409 kts | 167° |
| 2026-05-04 17:08 | 39.76489 | 12.73640 | 26700 ft | 406 kts | 167° |
| 2026-05-04 17:08 | 39.71155 | 12.75901 | 25726 ft | 400 kts | 167° |
| 2026-05-04 17:08 | 39.68512 | 12.77020 | 25241 ft | 398 kts | 166° |
| 2026-05-04 17:09 | 39.65913 | 12.78122 | 24768 ft | 395 kts | 167° |
| 2026-05-04 17:09 | 39.63314 | 12.79222 | 24295 ft | 392 kts | 166° |
| 2026-05-04 17:09 | 39.60720 | 12.80320 | 23819 ft | 389 kts | 166° |
| 2026-05-04 17:10 | 39.55629 | 12.82469 | 22893 ft | 384 kts | 166° |
| 2026-05-04 17:10 | 39.48078 | 12.85647 | 21513 ft | 377 kts | 166° |
| 2026-05-04 17:11 | 39.45622 | 12.86680 | 21060 ft | 374 kts | 166° |
| 2026-05-04 17:11 | 39.43143 | 12.87721 | 20608 ft | 372 kts | 166° |
| 2026-05-04 17:11 | 39.38259 | 12.89771 | 19709 ft | 367 kts | 165° |
| 2026-05-04 17:12 | 39.35859 | 12.90776 | 19263 ft | 364 kts | 165° |
| 2026-05-04 17:12 | 39.31087 | 12.92775 | 18400 ft | 358 kts | 165° |
| 2026-05-04 17:13 | 39.24063 | 12.95715 | 17106 ft | 350 kts | 165° |
| 2026-05-04 17:14 | 39.17186 | 12.98585 | 15818 ft | 341 kts | 165° |
| 2026-05-04 17:14 | 39.14972 | 12.99507 | 15399 ft | 335 kts | 165° |
| 2026-05-04 17:14 | 39.10553 | 13.01345 | 14568 ft | 331 kts | 164° |
| 2026-05-04 17:15 | 39.08395 | 13.02241 | 14169 ft | 328 kts | 164° |
| 2026-05-04 17:15 | 39.04100 | 13.04026 | 13365 ft | 321 kts | 164° |
| 2026-05-04 17:16 | 38.99892 | 13.05773 | 12578 ft | 316 kts | 164° |
| 2026-05-04 17:16 | 38.93671 | 13.08351 | 11402 ft | 311 kts | 164° |
| 2026-05-04 17:17 | 38.91628 | 13.09195 | 11010 ft | 308 kts | 164° |
| 2026-05-04 17:17 | 38.85528 | 13.10830 | 10092 ft | 285 kts | 194° |
| 2026-05-04 17:18 | 38.83770 | 13.09833 | 9889 ft | 277 kts | 217° |
| 2026-05-04 17:18 | 38.80769 | 13.06838 | 9398 ft | 272 kts | 221° |
| 2026-05-04 17:19 | 38.77750 | 13.03877 | 8903 ft | 272 kts | 219° |
| 2026-05-04 17:19 | 38.74729 | 13.01027 | 8407 ft | 270 kts | 218° |
| 2026-05-04 17:20 | 38.71732 | 12.98208 | 7916 ft | 268 kts | 218° |
| 2026-05-04 17:20 | 38.68740 | 12.95392 | 7421 ft | 266 kts | 218° |
| 2026-05-04 17:20 | 38.67251 | 12.93991 | 7173 ft | 265 kts | 218° |
| 2026-05-04 17:21 | 38.64294 | 12.91210 | 6684 ft | 261 kts | 218° |
| 2026-05-04 17:21 | 38.61385 | 12.88475 | 6190 ft | 260 kts | 218° |
| 2026-05-04 17:22 | 38.59935 | 12.87116 | 5945 ft | 259 kts | 217° |
| 2026-05-04 17:22 | 38.58476 | 12.85747 | 5699 ft | 257 kts | 217° |
| 2026-05-04 17:23 | 38.54191 | 12.81722 | 4993 ft | 252 kts | 216° |
| 2026-05-04 17:23 | 38.52629 | 12.80780 | 4971 ft | 254 kts | 191° |
| 2026-05-04 17:23 | 38.49072 | 12.80977 | 4982 ft | 256 kts | 175° |
| 2026-05-04 17:24 | 38.47290 | 12.81155 | 4968 ft | 253 kts | 178° |
| 2026-05-04 17:24 | 38.42236 | 12.81342 | 4465 ft | 232 kts | 179° |
| 2026-05-04 17:25 | 38.40616 | 12.81388 | 4332 ft | 230 kts | 179° |
| 2026-05-04 17:25 | 38.37422 | 12.81485 | 4054 ft | 228 kts | 179° |
| 2026-05-04 17:26 | 38.34244 | 12.81586 | 3802 ft | 227 kts | 179° |
| 2026-05-04 17:26 | 38.29524 | 12.81738 | 3497 ft | 218 kts | 179° |
| 2026-05-04 17:27 | 38.26534 | 12.81832 | 3304 ft | 213 kts | 179° |
| 2026-05-04 17:27 | 38.23642 | 12.82332 | 3108 ft | 207 kts | 158° |
| 2026-05-04 17:28 | 38.21069 | 12.83847 | 2993 ft | 201 kts | 156° |
| 2026-05-04 17:29 | 38.17396 | 12.85854 | 2751 ft | 189 kts | 158° |
| 2026-05-04 17:29 | 38.13746 | 12.87828 | 2381 ft | 191 kts | 158° |
| 2026-05-04 17:30 | 38.11735 | 12.91555 | 2088 ft | 196 kts | 83° |
| 2026-05-04 17:31 | 38.12741 | 12.94810 | 1726 ft | 197 kts | 67° |
| 2026-05-04 17:31 | 38.14318 | 12.99406 | 1183 ft | 180 kts | 68° |
| 2026-05-04 17:32 | 38.15270 | 13.02230 | 842 ft | 170 kts | 68° |
| 2026-05-04 17:33 | 38.16547 | 13.06116 | 490 ft | 156 kts | 69° |
| 2026-05-04 17:33 | 38.16974 | 13.07362 | 306 ft | 152 kts | 65° |
| 2026-05-04 17:34 | 38.18064 | 13.10545 | 88 ft | 70 kts | 69° |
| 2026-05-04 17:34 | 38.18237 | 13.11047 | 91 ft | 60 kts | 66° |
| 2026-05-04 17:35 | 38.18599 | 13.11808 | 64 ft | 18 kts | 277° |
| 2026-05-04 17:35 | 38.18617 | 13.11565 | 68 ft | 9 kts | 253° |
| 2026-05-04 17:35 | 38.18586 | 13.11464 | 70 ft | 17 kts | 249° |
| 2026-05-04 17:36 | 38.18525 | 13.11286 | 73 ft | 21 kts | 248° |
| 2026-05-04 17:36 | 38.18546 | 13.11122 | 71 ft | 18 kts | 260° |
| 2026-05-04 17:36 | 38.18537 | 13.10979 | 69 ft | 17 kts | 316° |
| 2026-05-04 17:36 | 38.18642 | 13.10909 | 63 ft | 15 kts | 306° |
| 2026-05-04 17:37 | 38.18630 | 13.10832 | 63 ft | 4 kts | 246° |
| 2026-05-04 17:37 | 38.18629 | 13.10829 | 63 ft | 0 kts | 246° |